Time;durP1;ratioP1;P1;durP2;ratioP2;P2;SDS_P1;SDS_P2;PMS_P1;PMS_P2;Temp;Humidity;BMP_temperature;BMP_pressure;BME280_temperature;BME280_humidity;BME280_pressure;Samples;Min_cycle;Max_cycle;Signal;HPM_P1;HPM_P2
2023/08/15 00:02:02;;;;;;;;;;;;;;;8.31;100.00;99434.44;5009598;28;19952;-82
2023/08/15 00:04:27;;;;;;;;;;;;;;;8.35;100.00;99428.09;5032665;28;19921;-83
2023/08/15 00:06:52;;;;;;;;;;;;;;;8.36;100.00;99419.28;5014611;28;19940;-83
2023/08/15 00:09:17;;;;;;;;;;;;;;;8.45;100.00;99415.44;5013524;28;19967;-82
2023/08/15 00:11:43;;;;;;;;;;;;;;;8.40;100.00;99435.84;5032415;28;19979;-82
2023/08/15 00:14:08;;;;;;;;;;;;;;;8.36;100.00;99440.41;5014675;28;19917;-82
2023/08/15 00:16:33;;;;;;;;;;;;;;;8.46;100.00;99451.47;5031543;28;20039;-82
2023/08/15 00:18:59;;;;;;;;;;;;;;;8.39;100.00;99465.78;5014506;28;19971;-82
2023/08/15 00:21:24;;;;;;;;;;;;;;;8.28;100.00;99463.59;5029530;28;19967;-83
2023/08/15 00:23:49;;;;;;;;;;;;;;;8.42;100.00;99449.84;5014309;28;19967;-83
2023/08/15 08:26:42;;;;;;;;;;;;;;;8.19;100.00;99617.88;5032175;28;19932;-82
2023/08/15 08:29:08;;;;;;;;;;;;;;;8.14;100.00;99625.09;5010181;28;19921;-82
2023/08/15 08:31:33;;;;;;;;;;;;;;;8.17;100.00;99629.41;5014474;28;20394;-82
2023/08/15 08:33:58;;;;;;;;;;;;;;;8.15;100.00;99634.75;5032288;28;19917;-83
2023/08/15 08:36:23;;;;;;;;;;;;;;;8.14;100.00;99630.38;5027417;28;19970;-84
2023/08/15 08:38:49;;;;;;;;;;;;;;;8.23;100.00;99636.25;5026188;28;20020;-83
2023/08/15 08:41:14;;;;;;;;;;;;;;;8.25;100.00;99637.94;5014343;28;19956;-83
2023/08/15 08:43:39;;;;;;;;;;;;;;;8.22;100.00;99648.59;5011419;28;19917;-83
2023/08/15 08:46:07;;;;;;;;;;;;;;;8.15;100.00;99666.44;5032134;28;19960;-84
2023/08/15 08:48:33;;;;;;;;;;;;;;;8.16;100.00;99667.28;5029708;28;19972;-83
2023/08/15 08:50:58;;;;;;;;;;;;;;;8.24;100.00;99667.00;5031958;28;19921;-82
2023/08/15 08:53:24;;;;;;;;;;;;;;;8.16;100.00;99677.84;5030630;28;19917;-82
2023/08/15 08:55:50;;;;;;;;;;;;;;;8.27;100.00;99685.38;5014393;28;20391;-83
2023/08/15 08:58:16;;;;;;;;;;;;;;;8.25;100.00;99681.91;5024939;28;19940;-82
2023/08/15 09:00:41;;;;;;;;;;;;;;;8.22;100.00;99679.38;5014099;28;20353;-82
2023/08/15 09:03:07;;;;;;;;;;;;;;;8.21;100.00;99683.81;5014159;28;19921;-82
2023/08/15 09:05:32;;;;;;;;;;;;;;;8.23;100.00;99687.25;5021528;28;20287;-82
2023/08/15 09:07:58;;;;;;;;;;;;;;;8.17;100.00;99698.03;5030530;28;19923;-82
2023/08/15 09:10:23;;;;;;;;;;;;;;;8.22;100.00;99701.38;5014022;28;19925;-81
2023/08/15 09:12:48;;;;;;;;;;;;;;;8.34;100.00;99705.34;5031662;28;20036;-84
2023/08/15 09:15:14;;;;;;;;;;;;;;;8.21;100.00;99706.72;5014074;28;20008;-81
2023/08/15 09:17:39;;;;;;;;;;;;;;;8.22;100.00;99716.34;5014004;28;20012;-82
2023/08/15 09:20:12;;;;;;;;;;;;;;;8.26;100.00;99725.88;5009697;28;19972;-83
2023/08/15 09:22:44;;;;;;;;;;;;;;;8.22;100.00;99729.53;5016219;28;19967;-82
2023/08/15 09:25:10;;;;;;;;;;;;;;;8.31;100.00;99730.09;5032867;28;19956;-83
2023/08/15 09:27:36;;;;;;;;;;;;;;;8.21;100.00;99720.75;5017759;28;19925;-82
2023/08/15 09:30:08;;;;;;;;;;;;;;;8.25;100.00;99726.78;5035619;28;19917;-82
2023/08/15 12:58:57;;;;;;;;;;;;;;;7.98;100.00;99767.25;5308455;23;19925;-86
2023/08/15 13:01:22;;;;;;;;;;;;;;;7.79;100.00;99767.00;5008589;28;19925;-87
2023/08/15 13:03:49;;;;;;;;;;;;;;;7.92;100.00;99771.88;5026245;28;19932;-84
2023/08/15 13:06:14;;;;;;;;;;;;;;;8.00;100.00;99775.13;5027623;28;19929;-84
2023/08/15 13:08:39;;;;;;;;;;;;;;;8.18;100.00;99779.81;5028453;28;19932;-84
2023/08/15 13:11:07;;;;;;;;;;;;;;;8.05;100.00;99783.75;5031218;28;19921;-85
2023/08/15 13:13:33;;;;;;;;;;;;;;;8.13;100.00;99780.88;5011525;28;19963;-85
2023/08/15 13:15:58;;;;;;;;;;;;;;;7.99;100.00;99782.19;5028598;28;19964;-83
2023/08/15 13:18:23;;;;;;;;;;;;;;;8.03;100.00;99779.47;5030423;28;19925;-84
2023/08/15 13:20:49;;;;;;;;;;;;;;;8.14;100.00;99777.31;5030402;28;19921;-84
2023/08/15 13:23:14;;;;;;;;;;;;;;;8.07;100.00;99781.91;5027884;28;19929;-88
2023/08/15 13:25:40;;;;;;;;;;;;;;;8.12;100.00;99785.28;5013918;28;20279;-90
2023/08/15 13:28:05;;;;;;;;;;;;;;;8.21;100.00;99786.75;5030938;28;20055;-83
2023/08/15 13:30:31;;;;;;;;;;;;;;;8.16;100.00;99786.91;5031680;28;19939;-85
2023/08/15 13:32:56;;;;;;;;;;;;;;;8.09;100.00;99782.75;5012999;28;20288;-84
2023/08/15 13:35:21;;;;;;;;;;;;;;;8.12;100.00;99780.00;5031622;28;19917;-83
2023/08/15 13:37:46;;;;;;;;;;;;;;;8.06;100.00;99780.22;5013183;28;19929;-86
2023/08/15 13:40:12;;;;;;;;;;;;;;;8.13;100.00;99776.44;5030875;28;19971;-85
2023/08/15 13:42:38;;;;;;;;;;;;;;;8.29;100.00;99781.22;5029559;28;20399;-88
2023/08/15 13:45:04;;;;;;;;;;;;;;;8.17;100.00;99770.16;5013877;28;19917;-84
2023/08/15 13:47:29;;;;;;;;;;;;;;;8.17;100.00;99764.88;5028160;28;20343;-87
2023/08/15 13:49:54;;;;;;;;;;;;;;;8.18;100.00;99778.94;5029514;28;19924;-84
2023/08/15 13:52:20;;;;;;;;;;;;;;;8.14;100.00;99782.59;5013640;28;19968;-88
2023/08/15 13:54:45;;;;;;;;;;;;;;;8.18;100.00;99779.81;5031495;28;19963;-84
2023/08/15 13:57:10;;;;;;;;;;;;;;;8.19;100.00;99781.53;5010901;28;19921;-85
2023/08/15 13:59:36;;;;;;;;;;;;;;;8.19;100.00;99776.25;5004847;28;19921;-84
2023/08/15 14:02:01;;;;;;;;;;;;;;;8.23;100.00;99770.88;5013690;28;19921;-84
2023/08/15 14:04:28;;;;;;;;;;;;;;;8.29;100.00;99781.22;5024818;28;19931;-83
2023/08/15 14:06:58;;;;;;;;;;;;;;;8.28;100.00;99772.44;5031124;28;20016;-84
2023/08/15 14:09:23;;;;;;;;;;;;;;;8.29;100.00;99775.94;5015340;28;20372;-85
2023/08/15 14:11:49;;;;;;;;;;;;;;;8.27;100.00;99772.50;5017093;28;19925;-84
2023/08/15 14:14:15;;;;;;;;;;;;;;;8.28;100.00;99774.19;5015797;28;20387;-84
2023/08/15 14:16:40;;;;;;;;;;;;;;;8.23;100.00;99776.16;5011306;28;19933;-83
2023/08/15 14:19:06;;;;;;;;;;;;;;;8.16;100.00;99771.06;5028169;28;19927;-84
2023/08/15 14:21:31;;;;;;;;;;;;;;;8.16;100.00;99776.34;5006916;28;19925;-85
2023/08/15 14:23:56;;;;;;;;;;;;;;;8.15;100.00;99773.75;5006463;28;19928;-85
2023/08/15 14:26:21;;;;;;;;;;;;;;;8.08;100.00;99767.81;5003813;28;19917;-87
2023/08/15 14:28:47;;;;;;;;;;;;;;;8.12;100.00;99766.81;5005580;28;19924;-85
2023/08/15 14:31:12;;;;;;;;;;;;;;;8.26;100.00;99768.13;5006900;28;20458;-83
2023/08/15 14:33:37;;;;;;;;;;;;;;;8.25;100.00;99774.31;5007099;28;19917;-82
2023/08/15 14:36:04;;;;;;;;;;;;;;;8.21;100.00;99777.97;5024357;28;19918;-84
2023/08/15 14:38:29;;;;;;;;;;;;;;;8.17;100.00;99766.66;5006480;28;19922;-87
2023/08/15 14:40:54;;;;;;;;;;;;;;;8.23;100.00;99771.72;5024835;28;20284;-86
2023/08/15 14:43:20;;;;;;;;;;;;;;;8.34;100.00;99768.72;5023441;28;20023;-93
2023/08/15 14:45:45;;;;;;;;;;;;;;;8.35;100.00;99759.91;5006779;28;19921;-83
2023/08/15 14:48:10;;;;;;;;;;;;;;;8.29;100.00;99765.38;5006700;28;20008;-83
2023/08/15 14:50:35;;;;;;;;;;;;;;;8.26;100.00;99768.13;5006436;28;20370;-86
2023/08/15 14:53:01;;;;;;;;;;;;;;;8.32;100.00;99771.41;5006473;28;20330;-84
2023/08/15 14:55:27;;;;;;;;;;;;;;;8.27;100.00;99761.94;5006544;28;19971;-83
2023/08/15 14:57:55;;;;;;;;;;;;;;;8.28;100.00;99766.28;5001157;28;20016;-84
2023/08/15 15:00:21;;;;;;;;;;;;;;;8.41;100.00;99764.09;5023709;28;20335;-83
2023/08/15 15:02:46;;;;;;;;;;;;;;;8.32;100.00;99765.28;5006828;28;19921;-84
2023/08/15 15:05:12;;;;;;;;;;;;;;;8.23;100.00;99760.31;5005761;28;19920;-84
2023/08/15 15:07:37;;;;;;;;;;;;;;;8.41;100.00;99772.91;5023830;28;19917;-85
2023/08/15 15:10:02;;;;;;;;;;;;;;;8.36;100.00;99767.75;5006119;28;19917;-84
2023/08/15 15:12:28;;;;;;;;;;;;;;;8.24;100.00;99768.16;5022800;28;19979;-84
2023/08/15 15:14:56;;;;;;;;;;;;;;;8.36;100.00;99772.19;5023861;28;19944;-84
2023/08/15 15:17:21;;;;;;;;;;;;;;;8.32;100.00;99762.63;5006056;28;19921;-84
2023/08/15 15:19:47;;;;;;;;;;;;;;;8.27;100.00;99767.22;5005599;28;20245;-83
2023/08/15 15:22:12;;;;;;;;;;;;;;;8.33;100.00;99762.59;5023767;28;19921;-85
2023/08/15 15:24:37;;;;;;;;;;;;;;;8.27;100.00;99767.22;5023357;28;20311;-87
2023/08/15 15:27:03;;;;;;;;;;;;;;;8.26;100.00;99768.13;5023490;28;19928;-83
2023/08/15 15:29:28;;;;;;;;;;;;;;;8.29;100.00;99766.22;5022610;28;20360;-85
2023/08/15 15:31:53;;;;;;;;;;;;;;;8.35;100.00;99760.75;5023639;28;20019;-85
2023/08/15 15:34:18;;;;;;;;;;;;;;;8.29;100.00;99755.69;5023099;28;19921;-83
2023/08/15 15:36:44;;;;;;;;;;;;;;;8.35;100.00;99762.53;5005108;28;19925;-83
2023/08/15 15:39:10;;;;;;;;;;;;;;;8.30;100.00;99759.19;5023718;28;19921;-83
2023/08/15 15:41:35;;;;;;;;;;;;;;;8.45;100.00;99763.97;5023367;28;19917;-83
2023/08/15 15:44:00;;;;;;;;;;;;;;;8.33;100.00;99772.28;5021670;28;20037;-84
2023/08/15 15:46:25;;;;;;;;;;;;;;;8.29;100.00;99765.38;5023130;28;20331;-83
2023/08/15 15:48:51;;;;;;;;;;;;;;;8.39;100.00;99765.94;5005505;28;20434;-84
2023/08/15 15:51:16;;;;;;;;;;;;;;;8.31;100.00;99768.81;5023008;28;19922;-87
2023/08/15 15:53:41;;;;;;;;;;;;;;;8.39;100.00;99763.28;5022672;28;20300;-85
2023/08/15 15:56:16;;;;;;;;;;;;;;;8.32;100.00;99767.91;5022852;28;20276;-90
2023/08/15 15:58:41;;;;;;;;;;;;;;;8.44;100.00;99764.91;5000157;28;19976;-86
2023/08/15 16:01:06;;;;;;;;;;;;;;;8.35;100.00;99771.31;5003411;28;19925;-84
2023/08/15 16:03:32;;;;;;;;;;;;;;;8.36;100.00;99762.50;5001749;28;20012;-84
2023/08/15 16:06:00;;;;;;;;;;;;;;;8.38;100.00;99765.06;5009656;28;19921;-86
2023/08/15 16:08:25;;;;;;;;;;;;;;;8.36;100.00;99766.91;5009727;28;19917;-84
2023/08/15 16:10:51;;;;;;;;;;;;;;;8.33;100.00;99761.75;5001707;28;19964;-86
2023/08/15 16:13:16;;;;;;;;;;;;;;;8.33;100.00;99757.31;5000760;28;19921;-88
2023/08/15 16:15:42;;;;;;;;;;;;;;;8.43;100.00;99757.00;5002529;28;19952;-84
2023/08/15 16:18:07;;;;;;;;;;;;;;;8.35;100.00;99754.63;5002502;28;20289;-88
2023/08/15 16:20:34;;;;;;;;;;;;;;;8.42;100.00;99761.41;5003607;28;19914;-85
2023/08/15 16:23:01;;;;;;;;;;;;;;;8.45;100.00;99755.19;5001226;28;20372;-84
2023/08/15 16:25:26;;;;;;;;;;;;;;;8.42;100.00;99748.19;5001476;28;19944;-83
2023/08/15 16:27:51;;;;;;;;;;;;;;;8.42;100.00;99756.13;5008406;28;20361;-88
2023/08/15 16:30:16;;;;;;;;;;;;;;;8.43;100.00;99746.44;5009941;28;20887;-87
2023/08/15 16:32:42;;;;;;;;;;;;;;;8.35;100.00;99747.56;5000797;28;19956;-90
2023/08/15 16:35:08;;;;;;;;;;;;;;;8.44;100.00;99751.69;5000814;28;19925;-91
2023/08/15 16:37:33;;;;;;;;;;;;;;;8.42;100.00;99740.28;5002184;28;19918;-85
2023/08/15 16:39:58;;;;;;;;;;;;;;;8.34;100.00;99747.59;5002493;28;19914;-87
2023/08/15 16:42:24;;;;;;;;;;;;;;;8.32;100.00;99744.16;5001513;28;20052;-85
2023/08/15 16:44:57;;;;;;;;;;;;;;;8.43;100.00;99747.31;5002775;28;20306;-89
2023/08/15 16:47:22;;;;;;;;;;;;;;;8.42;100.00;99750.84;5001250;28;20320;-85
2023/08/15 16:49:47;;;;;;;;;;;;;;;8.37;100.00;99752.78;5002766;28;19922;-83
2023/08/15 16:52:15;;;;;;;;;;;;;;;8.41;100.00;99749.13;5001415;28;19996;-85
2023/08/15 16:54:40;;;;;;;;;;;;;;;8.38;100.00;99754.50;5002851;28;19921;-87
2023/08/15 16:57:06;;;;;;;;;;;;;;;8.31;100.00;99756.50;5001844;28;19924;-84
2023/08/15 16:59:31;;;;;;;;;;;;;;;8.33;100.00;99751.19;5012465;28;19937;-86
2023/08/15 17:01:56;;;;;;;;;;;;;;;8.31;100.00;99752.97;5022407;28;19921;-85
2023/08/15 17:04:21;;;;;;;;;;;;;;;8.31;100.00;99758.25;5004369;28;19928;-88
2023/08/15 17:06:48;;;;;;;;;;;;;;;8.44;100.00;99754.34;5004026;28;19980;-85
2023/08/15 17:09:13;;;;;;;;;;;;;;;8.44;100.00;99764.03;5022032;28;20360;-86
2023/08/15 17:11:39;;;;;;;;;;;;;;;8.38;100.00;99759.78;5005217;28;20056;-88
2023/08/15 17:14:05;;;;;;;;;;;;;;;8.41;100.00;99759.69;5020565;28;19967;-89
2023/08/15 17:16:30;;;;;;;;;;;;;;;8.52;100.00;99760.22;5004701;28;19925;-85
2023/08/15 17:18:55;;;;;;;;;;;;;;;8.58;100.00;99764.41;5021711;28;19924;-84
2023/08/15 17:21:21;;;;;;;;;;;;;;;8.43;100.00;99757.00;5019911;28;19932;-86
2023/08/15 17:23:46;;;;;;;;;;;;;;;8.47;100.00;99769.19;5020562;28;19925;-90
2023/08/15 17:26:11;;;;;;;;;;;;;;;8.47;100.00;99764.78;5024333;28;19925;-87
2023/08/15 17:28:37;;;;;;;;;;;;;;;8.67;100.00;99765.88;5012418;28;19925;-84
2023/08/15 17:31:05;;;;;;;;;;;;;;;8.67;100.00;99765.88;5022724;28;19925;-84
2023/08/15 17:33:30;;;;;;;;;;;;;;;8.63;100.00;99770.41;5022549;28;19932;-87
2023/08/15 17:35:55;;;;;;;;;;;;;;;8.49;100.00;99768.25;5023101;28;19922;-88
2023/08/15 17:38:21;;;;;;;;;;;;;;;8.59;100.00;99767.94;5022602;28;19925;-90
2023/08/15 17:40:46;;;;;;;;;;;;;;;8.59;100.00;99775.84;5006387;28;20346;-89
2023/08/15 17:43:11;;;;;;;;;;;;;;;8.53;100.00;99772.47;5004018;28;20280;-83
2023/08/15 17:45:38;;;;;;;;;;;;;;;8.51;100.00;99771.69;5010653;28;20288;-88
2023/08/15 17:48:03;;;;;;;;;;;;;;;8.61;100.00;99776.66;5028201;28;19983;-90
2023/08/15 17:50:29;;;;;;;;;;;;;;;8.63;100.00;99772.16;5026991;28;19925;-87
2023/08/15 17:52:54;;;;;;;;;;;;;;;8.57;100.00;99769.75;5027283;28;19967;-87
2023/08/15 17:55:19;;;;;;;;;;;;;;;8.52;100.00;99768.13;5024861;28;19932;-88
2023/08/15 17:57:47;;;;;;;;;;;;;;;8.56;100.00;99773.31;5024285;28;20407;-83
2023/08/15 18:00:12;;;;;;;;;;;;;;;8.59;100.00;99779.34;5024379;28;19922;-89
2023/08/15 18:02:38;;;;;;;;;;;;;;;8.62;100.00;99773.97;5025855;28;20004;-85
2023/08/15 18:05:03;;;;;;;;;;;;;;;8.49;100.00;99777.94;5024802;28;19920;-85
2023/08/15 18:07:29;;;;;;;;;;;;;;;8.49;100.00;99784.09;5026022;28;20392;-88
2023/08/15 18:09:54;;;;;;;;;;;;;;;8.48;100.00;99777.06;5025606;28;19921;-84
2023/08/15 18:12:19;;;;;;;;;;;;;;;8.54;100.00;99786.56;5024178;28;20376;-89
2023/08/15 18:14:45;;;;;;;;;;;;;;;8.54;100.00;99784.78;5008191;28;19925;-87
2023/08/15 18:17:10;;;;;;;;;;;;;;;8.50;100.00;99785.81;5025637;28;19925;-85
2023/08/15 18:19:35;;;;;;;;;;;;;;;8.54;100.00;99791.84;5026192;28;19921;-90
2023/08/15 18:22:00;;;;;;;;;;;;;;;8.53;100.00;99796.25;5025124;28;20004;-87
2023/08/15 18:24:26;;;;;;;;;;;;;;;8.49;100.00;99799.94;5007670;28;20007;-85
2023/08/15 18:26:52;;;;;;;;;;;;;;;8.44;100.00;99791.31;5026092;28;20474;-85
2023/08/15 18:29:17;;;;;;;;;;;;;;;8.50;100.00;99800.78;5025152;28;20059;-84
2023/08/15 18:31:42;;;;;;;;;;;;;;;8.56;100.00;99805.00;5025824;28;20407;-86
2023/08/15 18:34:08;;;;;;;;;;;;;;;8.60;100.00;99804.84;5025906;28;19963;-85
2023/08/15 18:36:33;;;;;;;;;;;;;;;8.51;100.00;99816.56;5025919;28;19921;-87
2023/08/15 18:38:58;;;;;;;;;;;;;;;8.55;100.00;99804.13;5008737;28;20394;-86
2023/08/15 18:41:24;;;;;;;;;;;;;;;8.47;100.00;99817.63;5026992;28;19917;-87
2023/08/15 18:43:49;;;;;;;;;;;;;;;8.58;100.00;99808.44;5005570;28;19921;-85
2023/08/15 18:46:14;;;;;;;;;;;;;;;8.49;100.00;99818.41;5006880;28;19968;-90
2023/08/15 18:48:40;;;;;;;;;;;;;;;8.56;100.00;99831.41;5023389;28;20347;-84
2023/08/15 18:51:05;;;;;;;;;;;;;;;8.50;100.00;99836.00;5023833;28;20007;-84
2023/08/15 18:53:30;;;;;;;;;;;;;;;8.59;100.00;99826.03;5024437;28;20422;-83
2023/08/15 18:55:56;;;;;;;;;;;;;;;8.47;100.00;99833.47;5023019;28;19917;-83
2023/08/15 18:58:21;;;;;;;;;;;;;;;8.47;100.00;99828.19;5023610;28;19965;-85
2023/08/15 19:00:46;;;;;;;;;;;;;;;8.58;100.00;99832.22;5025342;28;19917;-83
2023/08/15 19:03:12;;;;;;;;;;;;;;;8.52;100.00;99833.28;5023798;28;19921;-87
2023/08/15 19:05:37;;;;;;;;;;;;;;;8.50;100.00;99830.72;5025279;28;19994;-84
2023/08/15 19:08:03;;;;;;;;;;;;;;;8.51;100.00;99837.69;5023758;28;19921;-85
2023/08/15 19:10:28;;;;;;;;;;;;;;;8.50;100.00;99838.63;5023740;28;19971;-84
2023/08/15 19:12:53;;;;;;;;;;;;;;;8.51;100.00;99842.97;5022566;28;19964;-85
2023/08/15 19:15:20;;;;;;;;;;;;;;;8.48;100.00;99840.44;5006016;28;20391;-89
2023/08/15 19:17:48;;;;;;;;;;;;;;;8.56;100.00;99840.19;5023855;28;19924;-85
2023/08/15 19:20:14;;;;;;;;;;;;;;;9.07;100.00;99851.66;5023845;28;20000;-84
2023/08/15 19:22:39;;;;;;;;;;;;;;;8.79;100.00;99851.75;5023393;28;20020;-82
2023/08/15 19:25:04;;;;;;;;;;;;;;;8.65;100.00;99854.88;5023565;28;19917;-86
2023/08/15 19:27:30;;;;;;;;;;;;;;;8.59;100.00;99857.72;5022543;28;20488;-83
2023/08/15 19:29:55;;;;;;;;;;;;;;;8.62;100.00;99854.97;5023583;28;20353;-83
2023/08/15 19:32:20;;;;;;;;;;;;;;;8.70;100.00;99864.38;5022908;28;19964;-85
2023/08/15 19:34:48;;;;;;;;;;;;;;;8.69;100.00;99862.63;5005576;28;19970;-84
2023/08/15 19:37:14;;;;;;;;;;;;;;;8.64;100.00;99861.06;5023344;28;20025;-86
2023/08/15 19:39:39;;;;;;;;;;;;;;;8.66;100.00;99860.13;5022056;28;20396;-85
2023/08/15 19:42:04;;;;;;;;;;;;;;;8.67;100.00;99860.97;5005456;28;19918;-83
2023/08/15 19:44:30;;;;;;;;;;;;;;;8.72;100.00;99853.75;5022425;28;20016;-85
2023/08/15 19:46:55;;;;;;;;;;;;;;;8.67;100.00;99863.59;5023098;28;19918;-84
2023/08/15 19:49:20;;;;;;;;;;;;;;;8.70;100.00;99863.50;5022856;28;19948;-84
2023/08/15 19:51:45;;;;;;;;;;;;;;;8.64;100.00;99867.19;5024204;28;19953;-86
2023/08/15 19:54:11;;;;;;;;;;;;;;;8.64;100.00;99854.00;5023692;28;19927;-85
2023/08/15 19:56:36;;;;;;;;;;;;;;;8.61;100.00;99858.53;5022913;28;20399;-87
2023/08/15 19:59:02;;;;;;;;;;;;;;;8.57;100.00;99864.81;5021903;28;19925;-88
2023/08/15 20:01:27;;;;;;;;;;;;;;;8.58;100.00;99864.75;5007056;28;19971;-84
2023/08/15 20:03:52;;;;;;;;;;;;;;;8.62;100.00;99865.56;5023194;28;19921;-84
2023/08/15 20:06:17;;;;;;;;;;;;;;;8.51;100.00;99872.03;5003387;28;19928;-88
2023/08/15 20:08:42;;;;;;;;;;;;;;;8.51;100.00;99869.41;5006866;28;20863;-85
2023/08/15 20:11:08;;;;;;;;;;;;;;;8.60;100.00;99867.34;5005824;28;19983;-88
2023/08/15 20:13:33;;;;;;;;;;;;;;;8.66;100.00;99872.44;5005333;28;19921;-87
2023/08/15 20:15:58;;;;;;;;;;;;;;;8.51;100.00;99866.75;5005183;28;19921;-88
2023/08/15 20:18:23;;;;;;;;;;;;;;;8.47;100.00;99875.72;5023356;28;20008;-85
2023/08/15 20:20:53;;;;;;;;;;;;;;;8.44;100.00;99870.53;5024449;28;19960;-84
2023/08/15 20:23:18;;;;;;;;;;;;;;;8.57;100.00;99867.47;5005682;28;19972;-86
2023/08/15 20:25:43;;;;;;;;;;;;;;;8.54;100.00;99871.94;5006030;28;19957;-87
2023/08/15 20:28:09;;;;;;;;;;;;;;;8.53;100.00;99870.19;5010873;28;19971;-89
2023/08/15 20:30:34;;;;;;;;;;;;;;;8.48;100.00;99873.91;5004705;28;19964;-84
2023/08/15 20:33:00;;;;;;;;;;;;;;;8.51;100.00;99872.03;5022649;28;20257;-86
2023/08/15 20:35:25;;;;;;;;;;;;;;;8.46;100.00;99870.47;5006367;28;19925;-85
2023/08/15 20:37:50;;;;;;;;;;;;;;;8.47;100.00;99875.72;5023732;28;20382;-83
2023/08/15 20:40:15;;;;;;;;;;;;;;;8.55;100.00;99880.72;5025205;28;19925;-83
2023/08/15 20:42:41;;;;;;;;;;;;;;;8.52;100.00;99876.41;5011430;28;19921;-83
2023/08/15 20:45:06;;;;;;;;;;;;;;;8.52;100.00;99884.34;5005080;28;19926;-84
2023/08/15 20:47:32;;;;;;;;;;;;;;;8.54;100.00;99876.38;5024277;28;20360;-84
2023/08/15 20:49:59;;;;;;;;;;;;;;;8.50;100.00;99880.88;5022380;28;19925;-87
2023/08/15 20:52:24;;;;;;;;;;;;;;;8.47;100.00;99869.53;5023367;28;19921;-85
2023/08/15 20:54:50;;;;;;;;;;;;;;;8.52;100.00;99876.41;5023441;28;19978;-84
2023/08/15 20:57:15;;;;;;;;;;;;;;;8.50;100.00;99870.31;5004424;28;20402;-82
2023/08/15 20:59:40;;;;;;;;;;;;;;;8.44;100.00;99872.28;5023558;28;19936;-85
2023/08/15 21:02:06;;;;;;;;;;;;;;;8.43;100.00;99871.44;5006023;28;20780;-85
2023/08/15 21:04:31;;;;;;;;;;;;;;;8.37;100.00;99876.88;5000815;28;20407;-84
2023/08/15 21:06:57;;;;;;;;;;;;;;;8.37;100.00;99871.59;5001695;28;19925;-84
2023/08/15 21:09:24;;;;;;;;;;;;;;;8.35;100.00;99874.28;5005220;28;20114;-84
2023/08/15 21:11:50;;;;;;;;;;;;;;;8.43;100.00;99874.06;5004960;28;19935;-83
2023/08/15 21:14:15;;;;;;;;;;;;;;;8.50;100.00;99878.25;5002577;28;19921;-84
2023/08/15 21:16:40;;;;;;;;;;;;;;;8.29;100.00;99877.13;5004018;28;19921;-85
2023/08/15 21:19:05;;;;;;;;;;;;;;;8.37;100.00;99883.00;5009633;28;19928;-86
2023/08/15 21:21:31;;;;;;;;;;;;;;;8.36;100.00;99888.38;5010660;28;20085;-84
2023/08/15 21:23:56;;;;;;;;;;;;;;;8.44;100.00;99891.66;5009212;28;19921;-82
2023/08/15 21:26:21;;;;;;;;;;;;;;;8.68;100.00;99889.97;5005040;28;19924;-84
2023/08/15 21:28:46;;;;;;;;;;;;;;;8.53;100.00;99893.13;5007509;28;19928;-83
2023/08/15 21:31:12;;;;;;;;;;;;;;;8.51;100.00;99895.81;5004963;28;19925;-87
2023/08/15 21:33:37;;;;;;;;;;;;;;;8.47;100.00;99895.94;5008232;28;20372;-84
2023/08/15 21:36:02;;;;;;;;;;;;;;;8.43;100.00;99889.91;5025626;28;19924;-90
2023/08/15 21:38:28;;;;;;;;;;;;;;;8.53;100.00;99891.31;5027558;28;20024;-95
2023/08/15 21:40:53;;;;;;;;;;;;;;;8.44;100.00;99888.13;5011446;28;20388;-92
2023/08/15 21:43:18;;;;;;;;;;;;;;;8.46;100.00;99889.81;5006854;28;19925;-91
2023/08/15 21:45:44;;;;;;;;;;;;;;;8.42;100.00;99901.34;5023587;28;20016;-93
2023/08/15 21:48:12;;;;;;;;;;;;;;;8.41;100.00;99890.81;5008833;28;19929;-90
2023/08/15 21:50:40;;;;;;;;;;;;;;;8.43;100.00;99889.03;5025978;28;19921;-92
2023/08/15 21:53:05;;;;;;;;;;;;;;;8.42;100.00;99890.78;5009575;28;19921;-87
2023/08/15 21:55:31;;;;;;;;;;;;;;;8.41;100.00;99883.78;5008502;28;19952;-89
2023/08/15 21:57:56;;;;;;;;;;;;;;;8.36;100.00;99897.13;5002985;28;19921;-87
2023/08/15 22:00:21;;;;;;;;;;;;;;;8.39;100.00;99897.94;5006952;28;19925;-87
2023/08/15 22:02:47;;;;;;;;;;;;;;;8.42;100.00;99897.84;5014691;28;19971;-87
2023/08/15 22:05:13;;;;;;;;;;;;;;;8.38;100.00;99897.09;5010108;28;20016;-91
2023/08/15 22:07:38;;;;;;;;;;;;;;;8.37;100.00;99892.72;5029641;28;19921;-90
2023/08/15 22:10:06;;;;;;;;;;;;;;;8.37;100.00;99890.94;5010614;28;19926;-85
2023/08/15 22:12:37;;;;;;;;;;;;;;;8.42;100.00;99890.78;5008429;28;20692;-88
2023/08/15 22:15:04;;;;;;;;;;;;;;;8.45;100.00;99888.06;5008054;28;19971;-91
2023/08/15 22:17:29;;;;;;;;;;;;;;;8.37;100.00;99884.78;5025915;28;19932;-84
2023/08/15 22:19:54;;;;;;;;;;;;;;;8.45;100.00;99893.34;5026388;28;19921;-83
2023/08/15 22:22:19;;;;;;;;;;;;;;;8.46;100.00;99883.69;5028148;28;19921;-87
2023/08/15 22:24:47;;;;;;;;;;;;;;;8.38;100.00;99883.88;5025142;28;20015;-92
2023/08/15 22:27:12;;;;;;;;;;;;;;;8.48;100.00;99882.69;5024672;28;19963;-87
2023/08/15 22:29:37;;;;;;;;;;;;;;;8.46;100.00;99881.03;5023745;28;19918;-92
2023/08/15 22:32:03;;;;;;;;;;;;;;;8.35;100.00;99884.84;5029987;28;20266;-94
2023/08/15 22:34:28;;;;;;;;;;;;;;;8.39;100.00;99882.09;5025702;28;19925;-89
2023/08/15 22:36:53;;;;;;;;;;;;;;;8.34;100.00;99884.88;5007224;28;19921;-83
2023/08/15 22:39:18;;;;;;;;;;;;;;;8.29;100.00;99889.47;5024063;28;20268;-89
2023/08/15 22:41:44;;;;;;;;;;;;;;;8.31;100.00;99887.63;5016441;28;20464;-93
2023/08/15 22:44:09;;;;;;;;;;;;;;;8.35;100.00;99882.19;5004892;28;19917;-90
2023/08/15 22:46:34;;;;;;;;;;;;;;;8.34;100.00;99887.53;5025226;28;19928;-87
2023/08/15 22:49:00;;;;;;;;;;;;;;;8.41;100.00;99893.47;5025344;28;20364;-87
2023/08/15 22:51:25;;;;;;;;;;;;;;;8.27;100.00;99892.16;5007852;28;19960;-89
2023/08/15 22:53:50;;;;;;;;;;;;;;;8.45;100.00;99885.44;5025172;28;19913;-83
2023/08/15 22:56:16;;;;;;;;;;;;;;;8.42;100.00;99888.13;5023482;28;19922;-85
2023/08/15 22:58:41;;;;;;;;;;;;;;;8.36;100.00;99888.38;5022815;28;20408;-85
2023/08/15 23:01:06;;;;;;;;;;;;;;;8.32;100.00;99882.28;5007506;28;19921;-84
2023/08/15 23:03:32;;;;;;;;;;;;;;;8.38;100.00;99875.97;5006523;28;20055;-90
2023/08/15 23:06:04;;;;;;;;;;;;;;;8.37;100.00;99875.09;5023840;28;19918;-83
2023/08/15 23:08:29;;;;;;;;;;;;;;;8.36;100.00;99872.53;5006488;28;19924;-84
2023/08/15 23:10:55;;;;;;;;;;;;;;;8.33;100.00;99868.19;5024200;28;20288;-84
2023/08/15 23:13:20;;;;;;;;;;;;;;;8.33;100.00;99872.63;5004890;28;19922;-83
2023/08/15 23:15:46;;;;;;;;;;;;;;;8.34;100.00;99869.03;5023482;28;19948;-84
2023/08/15 23:18:11;;;;;;;;;;;;;;;8.39;100.00;99858.34;5006484;28;19944;-86
2023/08/15 23:20:36;;;;;;;;;;;;;;;8.30;100.00;99864.78;5006490;28;20595;-82
2023/08/15 23:23:02;;;;;;;;;;;;;;;8.35;100.00;99868.16;5006155;28;19956;-83
